Time;durP1;ratioP1;P1;durP2;ratioP2;P2;SDS_P1;SDS_P2;PMS_P1;PMS_P2;Temp;Humidity;BMP_temperature;BMP_pressure;BME280_temperature;BME280_humidity;BME280_pressure;Samples;Min_cycle;Max_cycle;Signal;HPM_P1;HPM_P2
2021/08/01 00:00:06;;;;;;;5.40;3.87;;;;;;;29.88;47.60;100367.34;128899;1084;64633;-83
2021/08/01 00:02:33;;;;;;;5.10;4.03;;;;;;;29.89;47.40;100369.05;128500;1084;64134;-84
2021/08/01 00:05:11;;;;;;;5.30;3.90;;;;;;;29.88;47.54;100370.06;128547;1084;64150;-83
2021/08/01 00:07:38;;;;;;;5.83;4.10;;;;;;;29.88;47.85;100362.73;128490;1084;64195;-85
2021/08/01 00:10:07;;;;;;;5.57;4.17;;;;;;;29.88;47.91;100365.45;128927;1084;64173;-83
2021/08/01 00:12:36;;;;;;;6.07;3.90;;;;;;;29.88;47.92;100356.46;128526;1083;64213;-83
2021/08/01 00:15:02;;;;;;;5.53;4.10;;;;;;;29.88;47.60;100362.73;128899;1084;64211;-85
2021/08/01 00:17:28;;;;;;;5.77;4.03;;;;;;;29.87;48.04;100366.51;128499;1084;64769;-85
2021/08/01 00:19:55;;;;;;;5.07;3.90;;;;;;;29.88;47.91;100361.91;128904;1084;64150;-85
2021/08/01 00:22:21;;;;;;;5.27;4.13;;;;;;;29.88;47.81;100364.63;128453;1084;64446;-84
2021/08/01 00:24:50;;;;;;;6.20;4.10;;;;;;;29.88;47.94;100359.19;128557;1083;64143;-85
2021/08/01 00:27:16;;;;;;;4.93;3.93;;;;;;;29.88;47.91;100353.73;128501;1084;64115;-84
2021/08/01 00:29:43;;;;;;;5.50;4.20;;;;;;;29.88;47.67;100364.63;128504;1084;64160;-84
2021/08/01 00:32:09;;;;;;;6.63;4.40;;;;;;;29.87;47.86;100363.78;128501;1082;64128;-86
2021/08/01 00:34:37;;;;;;;;;;;;;;;29.87;47.98;100379.25;128507;1084;64099;-84
2021/08/01 00:37:10;;;;;;;5.50;4.03;;;;;;;29.86;47.90;100364.80;128465;1084;64138;-84
2021/08/01 00:39:36;;;;;;;5.47;3.90;;;;;;;29.85;47.93;100333.14;128516;1084;65349;-85
2021/08/01 00:42:03;;;;;;;5.97;4.03;;;;;;;29.86;47.97;100320.41;128485;1084;64137;-84
2021/08/01 00:44:30;;;;;;;5.23;3.90;;;;;;;29.86;47.68;100309.52;128943;1084;64103;-85
2021/08/01 00:46:56;;;;;;;5.33;3.80;;;;;;;29.85;47.51;100300.50;128510;1084;64307;-84
2021/08/01 00:49:28;;;;;;;5.63;4.23;;;;;;;29.86;47.43;100304.95;128471;1084;64131;-85
2021/08/01 00:51:55;;;;;;;4.93;3.80;;;;;;;29.86;47.86;100313.11;128498;1084;64096;-84
2021/08/01 00:54:29;;;;;;;5.20;4.00;;;;;;;29.86;47.92;100314.97;128928;1082;64239;-84
2021/08/01 00:56:55;;;;;;;5.70;4.20;;;;;;;29.86;47.55;100318.55;128456;1084;64156;-84
2021/08/01 00:59:22;;;;;;;5.87;4.07;;;;;;;29.85;47.75;100327.70;128452;1082;64231;-85
2021/08/01 01:02:04;;;;;;;5.77;4.27;;;;;;;29.85;48.02;100316.81;128495;1084;64176;-83
2021/08/01 01:04:45;;;;;;;5.23;4.23;;;;;;;29.85;47.79;100319.54;128518;1084;64137;-84
2021/08/01 01:07:34;;;;;;;6.63;4.43;;;;;;;29.86;47.67;100324.00;128494;1083;64112;-84
2021/08/01 01:10:29;;;;;;;5.50;3.93;;;;;;;29.85;47.59;100316.81;128484;1084;64299;-85
2021/08/01 01:13:15;;;;;;;6.13;4.13;;;;;;;29.86;47.48;100328.57;128504;1084;64275;-84
2021/08/01 01:15:46;;;;;;;6.00;4.50;;;;;;;29.86;47.68;100343.04;128545;1084;64365;-85
2021/08/01 01:18:20;;;;;;;6.20;4.37;;;;;;;29.86;48.10;100340.31;128894;1084;64117;-85
2021/08/01 01:21:26;;;;;;;6.53;4.50;;;;;;;29.86;48.11;100331.29;128476;1084;64227;-84
2021/08/01 01:24:25;;;;;;;5.23;3.87;;;;;;;29.86;48.10;100334.01;128857;1084;64128;-84
2021/08/01 01:27:23;;;;;;;6.60;4.23;;;;;;;29.85;48.06;100337.75;128031;1087;64268;-84
2021/08/01 01:30:02;;;;;;;6.03;4.10;;;;;;;29.86;47.59;100334.01;127897;1087;64105;-84
2021/08/01 01:32:35;;;;;;;6.33;4.30;;;;;;;29.85;47.81;100324.98;127991;1087;64595;-85
2021/08/01 01:35:38;;;;;;;7.10;4.30;;;;;;;29.85;48.15;100305.94;128193;1085;64141;-84
2021/08/01 01:38:08;;;;;;;5.70;3.93;;;;;;;29.86;47.78;100301.36;127780;1090;64413;-83
2021/08/01 01:40:37;;;;;;;5.80;4.25;;;;;;;29.85;47.97;100305.94;127728;1090;64343;-84
2021/08/01 01:43:06;;;;;;;6.20;4.13;;;;;;;29.86;48.05;100309.52;127738;1090;64278;-84
2021/08/01 01:45:36;;;;;;;5.67;4.20;;;;;;;29.86;48.07;100321.27;127761;1090;64291;-84
2021/08/01 01:48:02;;;;;;;5.20;4.07;;;;;;;29.86;48.12;100312.25;127724;1090;64281;-84
2021/08/01 01:50:28;;;;;;;5.43;4.20;;;;;;;29.86;47.62;100309.52;127762;1090;64218;-83
2021/08/01 01:52:57;;;;;;;5.87;4.20;;;;;;;29.86;47.90;100306.80;127725;1090;64229;-84
2021/08/01 01:55:24;;;;;;;4.87;4.00;;;;;;;29.85;47.73;100314.09;127781;1090;64289;-84
2021/08/01 01:57:53;;;;;;;5.37;3.90;;;;;;;29.85;48.06;100318.70;127739;1089;64163;-84
2021/08/01 02:00:21;;;;;;;6.13;4.13;;;;;;;29.85;47.68;100319.54;127757;1090;64147;-84
2021/08/01 02:02:49;;;;;;;6.50;4.07;;;;;;;29.86;47.66;100312.25;127816;1087;64168;-84
2021/08/01 02:05:15;;;;;;;7.00;4.20;;;;;;;29.84;47.64;100315.12;128000;1087;64311;-84
2021/08/01 02:07:43;;;;;;;8.97;4.40;;;;;;;29.85;48.06;100314.09;127974;1087;64284;-84
2021/08/01 02:10:25;;;;;;;6.30;4.27;;;;;;;29.84;47.82;100312.39;127979;1087;64176;-84
2021/08/01 02:12:56;;;;;;;5.23;4.30;;;;;;;29.84;48.14;100312.39;128681;1084;64139;-83
2021/08/01 02:15:23;;;;;;;6.00;3.97;;;;;;;29.84;48.18;100317.84;128742;1084;64131;-84
2021/08/01 02:18:00;;;;;;;7.00;4.00;;;;;;;29.85;48.17;100314.09;128777;1084;64242;-83
2021/08/01 02:20:44;;;;;;;5.30;4.17;;;;;;;29.86;47.73;100312.25;128504;1084;64256;-84
2021/08/01 02:23:27;;;;;;;5.90;4.37;;;;;;;29.86;48.16;100317.69;128466;1084;64173;-85
2021/08/01 02:25:54;;;;;;;5.13;4.17;;;;;;;29.85;48.15;100322.27;128931;1084;64300;-84
2021/08/01 02:28:21;;;;;;;5.77;4.30;;;;;;;29.85;48.08;100324.98;128516;1082;64150;-84
2021/08/01 02:30:57;;;;;;;5.07;4.07;;;;;;;29.86;48.18;100334.88;128504;1084;63936;-84
2021/08/01 02:33:27;;;;;;;5.33;3.93;;;;;;;29.84;47.69;100339.61;128526;1084;64127;-84
2021/08/01 02:35:59;;;;;;;7.20;4.60;;;;;;;29.85;48.21;100337.75;128500;1084;64172;-84
2021/08/01 02:38:26;;;;;;;6.00;4.30;;;;;;;29.85;48.00;100345.91;128932;1084;64160;-84
2021/08/01 02:40:56;;;;;;;5.60;4.13;;;;;;;29.85;48.17;100343.19;128474;1084;64116;-84
2021/08/01 02:43:29;;;;;;;6.97;4.43;;;;;;;29.83;48.22;100356.98;128893;1084;64105;-85
2021/08/01 02:45:55;;;;;;;7.20;4.30;;;;;;;29.85;48.23;100359.52;128892;1084;64281;-84
2021/08/01 02:48:23;;;;;;;5.57;4.10;;;;;;;29.85;48.32;100362.23;128455;1084;64128;-84
2021/08/01 02:51:04;;;;;;;6.30;4.10;;;;;;;29.83;48.14;100378.74;128492;1084;64626;-83
2021/08/01 02:53:38;;;;;;;6.87;4.50;;;;;;;29.84;48.32;100368.70;128908;1084;64217;-85
2021/08/01 02:56:05;;;;;;;7.13;4.40;;;;;;;29.84;47.88;100371.42;128490;1084;64124;-84
2021/08/01 02:58:32;;;;;;;4.97;3.97;;;;;;;29.84;48.14;100372.25;128480;1084;64275;-84
2021/08/01 03:01:09;;;;;;;6.30;4.07;;;;;;;29.83;48.17;100370.58;128915;1084;64333;-84
2021/08/01 03:03:40;;;;;;;5.43;4.00;;;;;;;29.83;48.16;100378.74;128461;1084;64115;-84
2021/08/01 03:06:06;;;;;;;7.13;4.93;;;;;;;29.83;47.90;100364.27;128502;1083;64173;-84
2021/08/01 03:08:43;;;;;;;6.43;3.97;;;;;;;29.83;47.72;100364.27;128490;1084;64131;-84
2021/08/01 03:11:09;;;;;;;7.23;4.27;;;;;;;29.83;48.32;100358.83;128885;1084;64610;-85
2021/08/01 03:13:35;;;;;;;6.47;4.13;;;;;;;29.83;48.24;100358.83;128484;1084;64182;-84
2021/08/01 03:16:08;;;;;;;5.63;4.40;;;;;;;29.83;48.35;100356.11;128916;1083;64256;-85
2021/08/01 03:18:34;;;;;;;5.43;4.27;;;;;;;29.83;47.84;100359.70;128517;1084;64578;-84
2021/08/01 03:21:10;;;;;;;5.03;3.97;;;;;;;29.82;48.30;100363.44;128509;1084;64010;-85
2021/08/01 03:23:39;;;;;;;5.50;4.20;;;;;;;29.82;48.39;100371.59;128488;1084;64139;-85
2021/08/01 03:26:08;;;;;;;6.07;4.47;;;;;;;29.83;47.99;100377.88;128470;1083;64099;-84
2021/08/01 03:28:52;;;;;;;6.83;4.20;;;;;;;29.83;47.97;100365.14;128529;1084;64092;-83
2021/08/01 03:31:21;;;;;;;6.03;4.20;;;;;;;29.82;47.99;100365.30;128487;1083;64224;-83
2021/08/01 03:33:48;;;;;;;6.27;4.20;;;;;;;29.82;47.98;100365.30;128480;1084;64259;-84
2021/08/01 03:36:14;;;;;;;5.73;4.43;;;;;;;29.82;48.05;100358.00;128512;1083;64153;-84
2021/08/01 03:38:43;;;;;;;5.80;4.20;;;;;;;29.81;48.07;100353.58;128523;1084;64208;-84
2021/08/01 03:41:09;;;;;;;5.60;4.37;;;;;;;29.82;48.09;100363.44;128504;1084;64096;-83
2021/08/01 03:43:36;;;;;;;6.67;4.27;;;;;;;29.82;48.46;100370.73;128466;1084;64333;-83
2021/08/01 03:46:02;;;;;;;6.17;4.33;;;;;;;29.82;48.35;100373.45;128495;1084;64272;-84
2021/08/01 03:48:38;;;;;;;5.40;4.13;;;;;;;29.82;48.33;100377.05;128504;1083;64239;-84
2021/08/01 03:51:04;;;;;;;5.33;4.07;;;;;;;29.81;48.22;100375.34;128507;1084;64152;-83
2021/08/01 03:53:33;;;;;;;6.10;4.30;;;;;;;29.82;48.15;100381.62;128853;1083;64163;-84
2021/08/01 03:56:03;;;;;;;5.47;4.27;;;;;;;29.82;48.49;100381.62;128909;1083;64083;-84
2021/08/01 03:58:30;;;;;;;5.47;4.00;;;;;;;29.82;48.47;100384.34;128503;1084;64124;-84
2021/08/01 04:00:58;;;;;;;6.30;4.60;;;;;;;29.81;48.43;100386.22;128466;1084;64224;-84
2021/08/01 04:03:24;;;;;;;;;;;;;;;29.81;48.47;100390.83;128490;1084;63973;-84
2021/08/01 04:05:51;;;;;;;6.30;4.23;;;;;;;29.80;48.18;100398.13;128452;1084;64431;-84
2021/08/01 04:08:22;;;;;;;;;;;;;;;29.78;48.51;100392.03;128539;1083;64128;-84
2021/08/01 04:10:48;;;;;;;6.00;4.40;;;;;;;29.79;47.98;100398.30;128497;1083;64125;-84
2021/08/01 04:13:24;;;;;;;4.60;4.00;;;;;;;29.80;47.82;100398.13;128492;1082;64166;-84
2021/08/01 04:15:50;;;;;;;5.15;4.05;;;;;;;29.80;48.09;100400.00;128477;1084;64134;-85
2021/08/01 04:18:21;;;;;;;5.77;3.90;;;;;;;29.81;48.17;100401.71;128498;1084;64150;-84
2021/08/01 04:21:12;;;;;;;5.50;4.40;;;;;;;29.81;48.15;100401.71;128865;1084;64295;-84
2021/08/01 04:23:38;;;;;;;7.17;4.40;;;;;;;29.81;47.94;100407.98;128376;1086;64153;-84
2021/08/01 04:26:16;;;;;;;5.30;4.43;;;;;;;29.81;48.44;100412.59;127890;1087;64163;-84
2021/08/01 04:28:42;;;;;;;6.90;4.25;;;;;;;29.82;48.04;100427.87;128054;1087;64163;-83
2021/08/01 04:31:08;;;;;;;6.23;4.50;;;;;;;29.82;48.14;100426.02;128000;1087;64610;-85
2021/08/01 04:33:35;;;;;;;6.37;4.53;;;;;;;29.82;47.94;100412.41;127994;1087;64367;-84
2021/08/01 04:36:10;;;;;;;6.33;4.47;;;;;;;29.84;48.56;100417.67;127999;1087;64288;-84
2021/08/01 04:38:38;;;;;;;5.90;4.37;;;;;;;29.83;48.07;100414.11;127915;1087;64281;-84
2021/08/01 04:41:07;;;;;;;4.97;4.00;;;;;;;29.83;48.06;100416.83;127990;1087;64291;-84
2021/08/01 04:43:36;;;;;;;4.87;3.90;;;;;;;29.83;48.15;100418.69;127976;1087;64134;-84
2021/08/01 04:46:06;;;;;;;7.37;4.33;;;;;;;29.84;48.02;100421.23;128007;1087;64461;-84
2021/08/01 04:48:32;;;;;;;5.20;4.10;;;;;;;29.84;48.02;100421.23;127994;1087;64281;-84
2021/08/01 04:50:58;;;;;;;8.50;4.50;;;;;;;29.84;48.41;100423.11;127979;1087;64661;-84
2021/08/01 04:53:27;;;;;;;5.73;4.00;;;;;;;29.85;48.05;100422.09;127985;1087;64221;-84
2021/08/01 04:55:53;;;;;;;;;;;;;;;29.84;48.08;100421.23;128014;1087;64268;-84
2021/08/01 04:58:22;;;;;;;6.10;4.13;;;;;;;29.84;48.34;100417.67;128025;1087;64285;-84
2021/08/01 05:00:49;;;;;;;6.20;4.50;;;;;;;29.84;48.13;100423.95;128145;1084;64648;-84
2021/08/01 05:03:15;;;;;;;7.40;4.37;;;;;;;29.85;48.45;100419.38;128482;1084;64099;-84
2021/08/01 05:05:44;;;;;;;6.13;4.40;;;;;;;29.85;48.36;100424.81;128475;1084;64509;-84
2021/08/01 05:08:10;;;;;;;6.63;4.77;;;;;;;29.86;48.02;100437.41;128954;1084;64260;-84
2021/08/01 05:10:39;;;;;;;5.60;4.20;;;;;;;29.87;48.08;100428.22;128922;1084;64243;-84
2021/08/01 05:13:07;;;;;;;5.47;3.70;;;;;;;29.86;47.93;100430.11;128896;1084;64128;-84
2021/08/01 05:15:34;;;;;;;5.60;4.13;;;;;;;29.87;48.33;100426.37;128503;1084;64222;-84
2021/08/01 05:18:04;;;;;;;6.27;4.17;;;;;;;29.89;48.32;100434.34;128518;1084;64092;-84
2021/08/01 05:20:30;;;;;;;5.67;4.33;;;;;;;29.89;48.14;100431.63;128918;1084;64710;-84
2021/08/01 05:23:04;;;;;;;6.63;4.03;;;;;;;29.91;48.36;100429.56;128899;1084;64141;-83
2021/08/01 05:25:33;;;;;;;5.63;3.87;;;;;;;29.91;48.06;100419.55;128486;1082;64227;-84
2021/08/01 05:28:03;;;;;;;5.53;3.47;;;;;;;29.91;48.15;100418.67;128506;1084;64128;-84
2021/08/01 05:30:32;;;;;;;6.30;4.10;;;;;;;29.93;48.02;100424.80;128489;1082;64201;-84
2021/08/01 05:33:03;;;;;;;5.17;4.00;;;;;;;29.93;48.29;100422.08;128523;1083;64105;-84
2021/08/01 05:35:35;;;;;;;5.37;4.30;;;;;;;29.95;48.04;100430.90;128492;1083;64648;-85
2021/08/01 05:38:01;;;;;;;5.63;4.30;;;;;;;29.95;48.46;100433.63;128940;1084;64270;-84
2021/08/01 05:40:28;;;;;;;6.70;4.50;;;;;;;29.96;48.31;100434.48;128477;1084;64150;-85
2021/08/01 05:43:00;;;;;;;6.10;4.70;;;;;;;29.97;48.40;100442.47;128495;1084;64661;-84
2021/08/01 05:45:33;;;;;;;6.57;4.50;;;;;;;29.98;48.53;100437.86;128890;1084;64223;-84
2021/08/01 05:48:03;;;;;;;5.87;4.50;;;;;;;29.96;48.57;100435.32;128932;1084;64137;-85
2021/08/01 05:50:32;;;;;;;7.30;4.13;;;;;;;29.98;48.46;100440.58;128880;1084;64737;-85
2021/08/01 05:53:02;;;;;;;5.27;4.40;;;;;;;29.98;48.21;100449.61;128463;1084;64250;-84
2021/08/01 05:55:28;;;;;;;4.97;4.00;;;;;;;29.99;48.66;100454.01;128454;1084;64102;-86
2021/08/01 05:57:55;;;;;;;5.90;4.30;;;;;;;30.00;48.51;100450.27;128456;1084;64168;-85
2021/08/01 06:00:21;;;;;;;5.47;4.13;;;;;;;30.01;48.01;100451.13;128500;1082;64111;-85
2021/08/01 06:02:56;;;;;;;5.00;3.93;;;;;;;30.01;48.40;100451.13;128912;1084;64170;-84
2021/08/01 06:05:25;;;;;;;5.77;4.27;;;;;;;30.02;48.43;100463.69;128447;1084;64093;-84
2021/08/01 06:08:03;;;;;;;5.90;4.10;;;;;;;30.03;48.31;100454.51;128491;1084;64181;-83
2021/08/01 06:10:32;;;;;;;4.80;3.90;;;;;;;30.03;48.26;100449.06;128537;1082;63900;-84
2021/08/01 06:12:59;;;;;;;5.90;4.30;;;;;;;30.03;48.14;100458.09;128901;1084;64152;-85
2021/08/01 06:15:36;;;;;;;6.33;4.47;;;;;;;30.04;47.85;100456.21;128540;1083;64124;-84
2021/08/01 06:18:03;;;;;;;5.60;4.33;;;;;;;30.05;48.17;100445.14;128509;1083;64128;-84
2021/08/01 06:20:29;;;;;;;6.53;4.33;;;;;;;30.05;47.80;100452.47;128491;1084;64301;-86
2021/08/01 06:23:04;;;;;;;7.23;4.37;;;;;;;30.06;48.21;100452.29;128488;1084;64651;-84
2021/08/01 06:25:38;;;;;;;6.17;4.37;;;;;;;30.07;48.19;100455.84;128534;1083;64240;-84
2021/08/01 06:28:10;;;;;;;5.07;4.23;;;;;;;30.07;47.87;100458.56;128533;1084;64815;-85
2021/08/01 06:30:40;;;;;;;5.67;3.97;;;;;;;30.07;48.06;100453.13;128908;1083;64134;-84
2021/08/01 06:33:06;;;;;;;5.63;4.40;;;;;;;30.08;48.12;100450.22;128842;1083;64098;-84
2021/08/01 06:35:32;;;;;;;6.23;4.20;;;;;;;30.09;47.71;100449.20;128475;1084;64131;-84
2021/08/01 06:37:59;;;;;;;5.17;4.13;;;;;;;30.10;48.10;100447.34;128534;1084;64259;-84
2021/08/01 06:40:28;;;;;;;5.97;4.67;;;;;;;30.10;47.63;100455.52;128937;1083;64181;-83
2021/08/01 06:42:54;;;;;;;6.63;4.40;;;;;;;30.10;48.07;100452.79;128462;1084;64108;-84
2021/08/01 06:45:20;;;;;;;6.17;4.27;;;;;;;30.12;47.99;100452.61;128482;1084;62740;-85
2021/08/01 06:47:49;;;;;;;6.93;4.67;;;;;;;30.13;48.04;100457.00;128945;1082;64135;-85
2021/08/01 06:50:15;;;;;;;5.87;4.57;;;;;;;30.13;48.05;100460.59;128894;1082;64134;-84
2021/08/01 06:52:50;;;;;;;6.10;4.30;;;;;;;30.13;47.71;100459.72;128490;1084;64227;-85
2021/08/01 06:55:25;;;;;;;5.53;4.40;;;;;;;30.13;48.15;100463.31;128523;1083;64122;-85
2021/08/01 06:58:03;;;;;;;5.80;4.43;;;;;;;30.13;48.02;100465.17;128923;1084;64277;-85
2021/08/01 07:00:29;;;;;;;5.60;4.20;;;;;;;30.14;48.04;100475.91;128492;1084;63940;-85
2021/08/01 07:03:03;;;;;;;5.77;4.60;;;;;;;30.15;48.10;100471.30;128463;1084;64160;-84
2021/08/01 07:05:34;;;;;;;5.47;4.33;;;;;;;30.15;48.18;100476.74;128913;1084;64179;-84
2021/08/01 07:08:01;;;;;;;5.23;4.37;;;;;;;30.16;47.94;100476.55;128492;1084;64136;-85
2021/08/01 07:10:36;;;;;;;6.73;4.30;;;;;;;30.15;48.05;100477.58;128475;1084;64227;-84
2021/08/01 07:13:06;;;;;;;5.60;4.50;;;;;;;30.15;48.14;100469.41;128490;1084;64134;-84
2021/08/01 07:15:33;;;;;;;5.73;4.37;;;;;;;30.16;47.79;100470.28;128472;1084;64150;-85
2021/08/01 07:18:00;;;;;;;5.50;4.30;;;;;;;30.17;48.14;100469.26;128479;1084;64102;-85
2021/08/01 07:20:30;;;;;;;5.87;4.10;;;;;;;30.17;48.10;100466.54;128899;1083;64125;-84
2021/08/01 07:23:09;;;;;;;8.37;4.63;;;;;;;30.16;47.98;100460.22;128881;1082;64129;-84
2021/08/01 07:25:36;;;;;;;5.87;4.53;;;;;;;30.16;48.05;100460.22;128518;1084;64299;-84
2021/08/01 07:28:04;;;;;;;5.73;4.17;;;;;;;30.17;48.24;100452.92;128532;1084;64137;-85
2021/08/01 07:30:31;;;;;;;5.77;4.10;;;;;;;30.17;48.14;100456.48;128491;1083;64275;-82
2021/08/01 07:33:03;;;;;;;5.77;4.23;;;;;;;30.18;47.69;100457.31;128464;1084;64152;-84
2021/08/01 07:35:29;;;;;;;5.97;4.23;;;;;;;30.18;48.13;100455.47;128515;1083;64128;-85
2021/08/01 07:37:58;;;;;;;5.43;4.53;;;;;;;30.17;48.18;100451.04;128491;1084;61892;-84
2021/08/01 07:40:24;;;;;;;5.50;4.30;;;;;;;30.17;47.72;100442.88;128462;1084;64205;-84
2021/08/01 07:42:51;;;;;;;5.83;4.37;;;;;;;30.18;48.15;100443.70;128461;1084;64101;-84
2021/08/01 07:45:34;;;;;;;6.57;4.30;;;;;;;30.18;47.72;100447.30;128885;1084;61852;-84
2021/08/01 07:48:01;;;;;;;5.53;4.53;;;;;;;30.18;48.18;100443.70;128561;1083;64140;-84
2021/08/01 07:50:32;;;;;;;5.87;4.50;;;;;;;30.18;48.12;100446.43;128464;1083;64170;-84
2021/08/01 07:53:00;;;;;;;5.40;4.20;;;;;;;30.18;47.74;100452.74;128513;1084;64127;-84
2021/08/01 07:55:26;;;;;;;5.90;4.63;;;;;;;30.19;47.74;100446.25;128506;1084;64201;-83
2021/08/01 07:58:01;;;;;;;6.90;4.50;;;;;;;30.19;47.72;100443.53;128510;1084;64089;-85
2021/08/01 08:00:27;;;;;;;6.67;4.53;;;;;;;30.19;48.17;100448.97;128899;1083;64165;-84
2021/08/01 08:03:00;;;;;;;5.47;4.40;;;;;;;30.19;48.02;100448.13;128487;1084;64099;-84
2021/08/01 08:05:29;;;;;;;6.20;4.40;;;;;;;30.19;48.17;100450.86;128506;1084;64131;-84
2021/08/01 08:07:55;;;;;;;6.20;4.60;;;;;;;30.18;48.13;100450.02;128501;1084;62927;-84
2021/08/01 08:10:24;;;;;;;6.27;4.67;;;;;;;30.19;47.96;100443.53;128922;1083;64278;-84
2021/08/01 08:12:51;;;;;;;5.53;4.23;;;;;;;30.19;47.81;100435.36;128887;1084;64223;-83
2021/08/01 08:15:24;;;;;;;5.63;4.47;;;;;;;30.19;47.84;100443.53;128503;1082;64226;-85
2021/08/01 08:17:51;;;;;;;5.20;4.40;;;;;;;30.20;48.03;100436.22;128536;1084;64127;-85
2021/08/01 08:20:20;;;;;;;5.53;4.40;;;;;;;30.19;47.84;100440.80;128483;1084;64128;-86
2021/08/01 08:22:46;;;;;;;;;;;;;;;30.19;47.89;100446.25;128519;1083;64205;-84
2021/08/01 08:25:22;;;;;;;6.50;4.73;;;;;;;30.20;47.88;100449.84;128463;1084;64201;-84
2021/08/01 08:27:51;;;;;;;6.07;4.40;;;;;;;30.19;48.17;100448.97;128941;1084;64042;-84
2021/08/01 08:30:27;;;;;;;6.43;4.87;;;;;;;30.18;48.26;100444.58;128530;1082;64195;-84
2021/08/01 08:32:53;;;;;;;5.87;4.80;;;;;;;30.20;47.98;100450.67;128899;1084;64275;-84
2021/08/01 08:35:21;;;;;;;6.40;4.80;;;;;;;30.19;47.92;100443.53;128506;1082;64208;-84
2021/08/01 08:37:49;;;;;;;6.70;4.80;;;;;;;30.20;48.17;100442.50;128518;1084;64321;-84
2021/08/01 08:40:15;;;;;;;6.57;4.33;;;;;;;30.20;47.96;100449.84;128518;1084;64206;-86
2021/08/01 08:42:43;;;;;;;6.40;4.57;;;;;;;30.20;48.21;100449.84;128867;1084;64140;-84
2021/08/01 08:45:11;;;;;;;7.13;4.67;;;;;;;30.20;47.98;100445.23;128943;1084;64099;-85
2021/08/01 08:47:39;;;;;;;5.73;4.43;;;;;;;30.22;48.01;100439.59;128471;1084;64150;-84
2021/08/01 08:50:05;;;;;;;5.60;4.43;;;;;;;30.21;48.22;100446.93;128507;1082;64184;-84
2021/08/01 08:52:42;;;;;;;7.60;4.70;;;;;;;30.21;48.18;100444.20;128449;1084;64371;-85
2021/08/01 08:55:09;;;;;;;5.37;4.70;;;;;;;30.22;48.00;100436.88;128516;1082;64291;-84
2021/08/01 08:57:38;;;;;;;5.17;4.20;;;;;;;30.22;48.16;100434.16;128521;1084;64099;-84
2021/08/01 09:00:09;;;;;;;6.80;4.90;;;;;;;30.22;47.76;100439.59;128512;1084;64115;-84
2021/08/01 09:02:36;;;;;;;6.73;5.10;;;;;;;30.22;47.92;100436.88;128435;1084;64645;-84
2021/08/01 09:05:15;;;;;;;5.27;4.27;;;;;;;30.23;48.21;100441.30;128497;1084;64092;-84
2021/08/01 09:07:41;;;;;;;6.10;4.70;;;;;;;30.22;48.22;100436.88;128522;1082;64125;-83
2021/08/01 09:10:09;;;;;;;6.20;4.50;;;;;;;30.22;48.17;100443.19;128441;1084;64099;-84
2021/08/01 09:12:47;;;;;;;5.50;4.40;;;;;;;30.23;47.82;100435.86;128475;1083;64272;-84
2021/08/01 09:15:16;;;;;;;6.17;4.37;;;;;;;30.22;47.72;100434.16;128850;1084;64127;-84
2021/08/01 09:17:44;;;;;;;5.33;4.30;;;;;;;30.23;47.83;100427.69;128934;1082;64111;-85
2021/08/01 09:20:31;;;;;;;6.20;4.30;;;;;;;30.23;48.21;100436.72;128891;1084;63970;-84
2021/08/01 09:23:05;;;;;;;5.63;4.60;;;;;;;30.23;48.22;100430.41;128478;1084;64167;-84
2021/08/01 09:25:38;;;;;;;5.80;4.40;;;;;;;30.23;48.01;100436.72;128906;1084;64216;-85
2021/08/01 09:28:19;;;;;;;5.03;4.33;;;;;;;30.24;48.19;100432.12;128537;1084;64115;-84
2021/08/01 09:30:52;;;;;;;7.10;4.60;;;;;;;30.23;47.81;100435.86;128509;1082;64334;-83
2021/08/01 09:33:42;;;;;;;5.00;3.90;;;;;;;30.23;47.92;100433.13;128492;1084;64200;-84
2021/08/01 09:36:19;;;;;;;5.58;4.65;;;;;;;30.23;48.27;100431.28;128556;1084;64138;-84
2021/08/01 09:38:52;;;;;;;6.98;4.78;;;;;;;30.23;47.91;100424.97;128549;1084;64158;-84
2021/08/01 09:41:25;;;;;;;5.30;4.37;;;;;;;30.22;47.81;100421.41;128885;1082;64051;-84
2021/08/01 09:43:55;;;;;;;6.23;4.60;;;;;;;30.22;47.77;100426.86;128847;1082;64091;-85
2021/08/01 09:46:43;;;;;;;6.90;4.60;;;;;;;30.23;47.71;100403.19;128528;1082;64287;-85
2021/08/01 09:49:30;;;;;;;5.83;4.80;;;;;;;30.23;47.81;100409.50;128553;1083;64150;-84
2021/08/01 09:52:01;;;;;;;7.53;4.53;;;;;;;30.22;47.99;100405.08;128401;1084;64281;-84
2021/08/01 09:54:48;;;;;;;5.30;4.20;;;;;;;30.23;47.76;100408.63;128381;1084;64157;-84
2021/08/01 09:57:18;;;;;;;6.10;4.43;;;;;;;30.23;48.24;100408.63;128374;1084;64150;-84
2021/08/01 09:59:47;;;;;;;5.20;4.40;;;;;;;30.22;48.18;100409.66;128395;1086;64282;-84
2021/08/01 10:02:15;;;;;;;5.60;4.40;;;;;;;30.22;48.21;100407.80;128393;1084;64090;-84
2021/08/01 10:04:45;;;;;;;5.37;4.10;;;;;;;30.22;47.82;100399.63;128377;1084;64159;-85
2021/08/01 10:07:12;;;;;;;5.43;4.40;;;;;;;30.23;48.09;100401.33;128354;1084;64671;-84
2021/08/01 10:09:40;;;;;;;6.43;4.60;;;;;;;30.22;48.30;100401.48;128418;1084;63942;-84
2021/08/01 10:12:06;;;;;;;5.30;4.30;;;;;;;30.23;48.20;100405.91;128416;1084;64179;-83
2021/08/01 10:14:32;;;;;;;5.20;4.30;;;;;;;30.22;47.45;100394.19;127988;1086;64565;-85
2021/08/01 10:16:59;;;;;;;6.67;4.47;;;;;;;30.23;47.71;100395.02;128388;1084;64264;-84
2021/08/01 10:19:26;;;;;;;5.67;4.70;;;;;;;30.22;48.19;100383.30;128396;1086;64129;-85
2021/08/01 10:21:59;;;;;;;6.40;4.50;;;;;;;30.23;48.16;100386.86;128363;1084;64147;-85
2021/08/01 10:24:31;;;;;;;6.13;4.60;;;;;;;30.22;48.23;100382.43;128456;1084;64125;-84
2021/08/01 10:27:06;;;;;;;5.80;4.40;;;;;;;30.22;47.90;100382.43;128888;1082;64284;-84
2021/08/01 10:29:59;;;;;;;5.90;4.70;;;;;;;30.22;48.11;100372.41;128481;1083;64176;-84
2021/08/01 10:32:26;;;;;;;5.90;4.30;;;;;;;30.21;47.76;100376.16;128356;1086;64132;-84
2021/08/01 10:35:23;;;;;;;5.83;4.70;;;;;;;30.21;47.81;100370.70;127919;1087;64219;-84
2021/08/01 10:38:11;;;;;;;6.23;4.30;;;;;;;30.21;48.22;100373.43;128344;1087;64136;-84
2021/08/01 10:40:38;;;;;;;5.67;4.40;;;;;;;30.20;47.54;100374.45;128081;1085;64128;-83
2021/08/01 10:43:13;;;;;;;5.63;4.10;;;;;;;30.20;48.12;100374.45;128000;1087;64160;-83
2021/08/01 10:45:43;;;;;;;5.60;4.33;;;;;;;30.21;47.71;100373.43;128039;1085;64265;-83
2021/08/01 10:48:09;;;;;;;5.70;4.60;;;;;;;30.22;47.88;100376.98;127996;1087;64237;-83
2021/08/01 10:50:36;;;;;;;5.50;4.50;;;;;;;30.22;47.70;100371.55;128050;1087;64597;-83
2021/08/01 10:53:25;;;;;;;4.70;4.20;;;;;;;30.21;47.86;100370.70;128398;1087;64288;-84
2021/08/01 10:56:14;;;;;;;5.07;4.07;;;;;;;30.21;47.93;100359.81;128014;1087;64543;-86
2021/08/01 10:58:42;;;;;;;5.30;4.30;;;;;;;30.21;47.70;100365.27;127937;1090;64580;-84
2021/08/01 11:01:10;;;;;;;5.47;4.23;;;;;;;30.22;48.21;100371.55;127876;1090;64140;-84
2021/08/01 11:03:39;;;;;;;5.87;4.47;;;;;;;30.21;48.28;100370.70;127699;1090;64153;-82
2021/08/01 11:06:07;;;;;;;5.77;4.40;;;;;;;30.21;48.13;100362.54;127582;1090;64418;-82
2021/08/01 11:08:35;;;;;;;5.83;4.50;;;;;;;30.22;47.75;100355.20;127700;1090;64425;-83
2021/08/01 11:11:17;;;;;;;5.90;4.53;;;;;;;30.22;48.27;100350.63;127883;1087;64179;-82
2021/08/01 11:13:48;;;;;;;6.13;4.63;;;;;;;30.22;47.88;100358.80;127860;1087;64217;-82
2021/08/01 11:16:36;;;;;;;5.73;4.33;;;;;;;30.22;47.85;100353.35;127832;1086;64163;-82
2021/08/01 11:19:43;;;;;;;5.23;4.10;;;;;;;30.22;48.07;100347.91;127849;1087;64234;-83
2021/08/01 11:22:42;;;;;;;5.93;4.27;;;;;;;30.23;47.92;100340.58;127679;1089;64340;-83
2021/08/01 11:25:31;;;;;;;5.43;4.17;;;;;;;30.23;47.63;100338.72;127633;1089;64167;-85
2021/08/01 11:28:29;;;;;;;;;;;;;;;30.22;47.63;100327.98;127710;1090;64137;-85
2021/08/01 11:31:13;;;;;;;4.90;4.23;;;;;;;30.22;48.21;100327.98;127308;1092;64152;-84
2021/08/01 11:33:47;;;;;;;4.80;4.30;;;;;;;30.22;48.19;100320.69;127324;1093;64160;-84
2021/08/01 11:36:33;;;;;;;5.60;4.43;;;;;;;30.22;47.71;100325.27;127462;1092;64170;-84
2021/08/01 11:39:01;;;;;;;5.77;4.27;;;;;;;30.22;47.95;100326.13;127247;1097;64262;-84